Time,TemperatureF,DewpointF,PressureIn,WindDirection,WindDirectionDegrees,WindSpeedMPH,WindSpeedGustMPH,Humidity,HourlyPrecipIn,Conditions,Clouds,dailyrainin,SoftwareType,DateUTC
2013-08-26 00:02:00,63.9,62.0,29.87,NW,310,0.0,-999.0,93,-99.99,,,0.47,weatherlink.com 1.10,2013-08-26 06:02:00,
2013-08-26 00:17:00,63.7,62.0,29.87,NW,310,0.0,-999.0,93,-99.99,,,0.47,weatherlink.com 1.10,2013-08-26 06:17:00,
2013-08-26 00:32:00,63.5,62.0,29.87,NW,310,0.0,-999.0,93,-99.99,,,0.00,weatherlink.com 1.10,2013-08-26 06:32:00,
2013-08-26 00:47:00,63.5,62.0,29.84,NW,310,0.0,-999.0,93,-99.99,,,0.00,weatherlink.com 1.10,2013-08-26 06:47:00,
2013-08-26 01:02:00,63.4,61.0,29.84,NW,310,3.0,-999.0,93,-99.99,,,0.00,weatherlink.com 1.10,2013-08-26 07:02:00,
2013-08-26 01:17:00,63.4,61.0,29.85,NW,310,0.0,-999.0,92,-99.99,,,0.00,weatherlink.com 1.10,2013-08-26 07:17:00,
2013-08-26 01:32:00,63.5,61.0,29.86,NW,310,0.0,-999.0,92,-99.99,,,0.00,weatherlink.com 1.10,2013-08-26 07:32:00,
2013-08-26 01:47:00,63.5,61.0,29.84,NW,310,0.0,-999.0,92,-99.99,,,0.00,weatherlink.com 1.10,2013-08-26 07:47:00,
2013-08-26 02:02:00,63.5,61.0,29.84,NW,310,0.0,-999.0,92,-99.99,,,0.00,weatherlink.com 1.10,2013-08-26 08:02:00,
2013-08-26 02:17:00,63.5,61.0,29.84,NW,310,4.0,-999.0,92,-99.99,,,0.00,weatherlink.com 1.10,2013-08-26 08:17:00,
2013-08-26 02:32:00,63.4,61.0,29.83,NW,310,2.0,-999.0,92,-99.99,,,0.00,weatherlink.com 1.10,2013-08-26 08:32:00,
2013-08-26 02:47:00,63.4,61.0,29.83,NW,310,0.0,-999.0,92,-99.99,,,0.00,weatherlink.com 1.10,2013-08-26 08:47:00,
2013-08-26 03:03:00,63.4,61.0,29.83,NW,310,2.0,-999.0,92,-99.99,,,0.00,weatherlink.com 1.10,2013-08-26 09:03:00,
2013-08-26 03:18:00,63.2,61.0,29.82,NW,310,3.0,-999.0,92,-99.99,,,0.00,weatherlink.com 1.10,2013-08-26 09:18:00,
2013-08-26 03:33:00,63.2,61.0,29.82,NW,310,2.0,-999.0,91,-99.99,,,0.00,weatherlink.com 1.10,2013-08-26 09:33:00,
2013-08-26 03:48:00,63.2,61.0,29.83,NW,310,4.0,-999.0,91,-99.99,,,0.00,weatherlink.com 1.10,2013-08-26 09:48:00,
2013-08-26 04:03:00,63.2,61.0,29.83,NW,310,0.0,-999.0,91,-99.99,,,0.00,weatherlink.com 1.10,2013-08-26 10:03:00,
2013-08-26 04:18:00,63.2,61.0,29.83,NW,310,1.0,-999.0,91,-99.99,,,0.00,weatherlink.com 1.10,2013-08-26 10:18:00,
2013-08-26 04:33:00,63.1,61.0,29.87,NW,310,0.0,-999.0,91,-99.99,,,0.00,weatherlink.com 1.10,2013-08-26 10:33:00,
2013-08-26 04:48:00,62.9,60.0,29.88,NW,310,0.0,-999.0,90,-99.99,,,0.00,weatherlink.com 1.10,2013-08-26 10:48:00,
2013-08-26 05:03:00,63.1,60.0,29.89,NW,310,0.0,-999.0,90,-99.99,,,0.00,weatherlink.com 1.10,2013-08-26 11:03:00,
2013-08-26 05:19:00,62.9,60.0,29.89,NW,310,0.0,-999.0,90,-99.99,,,0.00,weatherlink.com 1.10,2013-08-26 11:19:00,
2013-08-26 05:33:00,62.9,60.0,29.89,NW,310,0.0,-999.0,89,-99.99,,,0.00,weatherlink.com 1.10,2013-08-26 11:33:00,
2013-08-26 05:48:00,62.4,60.0,29.89,NW,310,0.0,-999.0,90,-99.99,,,0.00,weatherlink.com 1.10,2013-08-26 11:48:00,
2013-08-26 06:04:00,62.3,59.0,29.89,NW,310,0.0,-999.0,90,-99.99,,,0.00,weatherlink.com 1.10,2013-08-26 12:04:00,
2013-08-26 06:18:00,62.1,59.0,29.89,NW,310,0.0,-999.0,90,-99.99,,,0.00,weatherlink.com 1.10,2013-08-26 12:18:00,
2013-08-26 06:33:00,61.6,59.0,29.91,NW,310,0.0,-999.0,90,-99.99,,,0.00,weatherlink.com 1.10,2013-08-26 12:33:00,
2013-08-26 06:48:00,61.0,58.0,29.91,NW,310,0.0,-999.0,91,-99.99,,,0.00,weatherlink.com 1.10,2013-08-26 12:48:00,
2013-08-26 07:04:00,61.3,59.0,29.92,NW,310,0.0,-999.0,92,-99.99,,,0.00,weatherlink.com 1.10,2013-08-26 13:04:00,
2013-08-26 07:19:00,61.8,60.0,29.92,NW,310,0.0,-999.0,92,-99.99,,,0.00,weatherlink.com 1.10,2013-08-26 13:19:00,
2013-08-26 07:34:00,62.9,61.0,29.91,NW,310,0.0,-999.0,92,-99.99,,,0.00,weatherlink.com 1.10,2013-08-26 13:34:00,
2013-08-26 07:48:00,63.7,61.0,29.89,NW,310,0.0,-999.0,92,-99.99,,,0.00,weatherlink.com 1.10,2013-08-26 13:48:00,
2013-08-26 08:04:00,65.3,62.0,29.89,NW,310,0.0,-999.0,88,-99.99,,,0.00,weatherlink.com 1.10,2013-08-26 14:04:00,
2013-08-26 08:18:00,66.4,62.0,29.88,NW,310,0.0,-999.0,85,-99.99,,,0.00,weatherlink.com 1.10,2013-08-26 14:18:00,
2013-08-26 08:34:00,67.4,61.0,29.87,NW,310,0.0,-999.0,80,-99.99,,,0.00,weatherlink.com 1.10,2013-08-26 14:34:00,
2013-08-26 08:49:00,68.3,61.0,29.87,NW,310,1.0,-999.0,77,-99.99,,,0.00,weatherlink.com 1.10,2013-08-26 14:49:00,
2013-08-26 09:04:00,68.9,61.0,29.86,NW,310,3.0,-999.0,75,-99.99,,,0.00,weatherlink.com 1.10,2013-08-26 15:04:00,
2013-08-26 09:20:00,69.3,61.0,29.86,NW,310,0.0,-999.0,74,-99.99,,,0.00,weatherlink.com 1.10,2013-08-26 15:20:00,
2013-08-26 09:35:00,70.8,61.0,29.86,NW,310,0.0,-999.0,70,-99.99,,,0.00,weatherlink.com 1.10,2013-08-26 15:35:00,
2013-08-26 09:50:00,72.0,61.0,29.85,NW,311,1.0,-999.0,69,-99.99,,,0.00,weatherlink.com 1.10,2013-08-26 15:50:00,
2013-08-26 10:05:00,73.7,62.0,29.85,NW,311,0.0,-999.0,66,-99.99,,,0.00,weatherlink.com 1.10,2013-08-26 16:05:00,
2013-08-26 10:20:00,74.6,60.0,29.85,ESE,106,5.0,-999.0,60,-99.99,,,0.00,weatherlink.com 1.10,2013-08-26 16:20:00,
2013-08-26 10:36:00,75.3,59.0,29.84,East,86,6.0,-999.0,57,-99.99,,,0.00,weatherlink.com 1.10,2013-08-26 16:36:00,
2013-08-26 10:49:00,75.4,59.0,29.85,ENE,70,4.0,-999.0,58,-99.99,,,0.00,weatherlink.com 1.10,2013-08-26 16:49:00,
2013-08-26 11:05:00,76.1,58.0,29.83,SE,124,3.0,-999.0,54,-99.99,,,0.00,weatherlink.com 1.10,2013-08-26 17:05:00,
2013-08-26 11:20:00,77.0,58.0,29.83,SE,140,6.0,-999.0,53,-99.99,,,0.00,weatherlink.com 1.10,2013-08-26 17:20:00,
2013-08-26 11:36:00,77.7,58.0,29.82,ESE,103,4.0,-999.0,50,-99.99,,,0.00,weatherlink.com 1.10,2013-08-26 17:36:00,
2013-08-26 11:51:00,77.6,57.0,29.82,SSE,151,1.0,-999.0,50,-99.99,,,0.00,weatherlink.com 1.10,2013-08-26 17:51:00,
2013-08-26 12:05:00,78.5,59.0,29.81,ENE,77,3.0,-999.0,51,-99.99,,,0.00,weatherlink.com 1.10,2013-08-26 18:05:00,
2013-08-26 12:21:00,79.2,58.0,29.81,SE,124,9.0,-999.0,49,-99.99,,,0.00,weatherlink.com 1.10,2013-08-26 18:21:00,
2013-08-26 12:36:00,79.2,57.0,29.80,SSE,167,0.0,-999.0,47,-99.99,,,0.00,weatherlink.com 1.10,2013-08-26 18:36:00,
2013-08-26 12:51:00,80.3,59.0,29.80,SSW,195,0.0,-999.0,48,-99.99,,,0.00,weatherlink.com 1.10,2013-08-26 18:51:00,
2013-08-26 13:07:00,80.7,59.0,29.80,SSW,199,5.0,-999.0,47,-99.99,,,0.00,weatherlink.com 1.10,2013-08-26 19:07:00,
2013-08-26 13:20:00,80.7,58.0,29.77,SSW,198,2.0,-999.0,46,-99.99,,,0.00,weatherlink.com 1.10,2013-08-26 19:20:00,
2013-08-26 13:36:00,82.0,58.0,29.76,SSW,196,5.0,-999.0,44,-99.99,,,0.00,weatherlink.com 1.10,2013-08-26 19:36:00,
2013-08-26 13:51:00,81.4,57.0,29.76,SSE,158,5.0,-999.0,44,-99.99,,,0.00,weatherlink.com 1.10,2013-08-26 19:51:00,
2013-08-26 14:07:00,80.9,57.0,29.75,South,179,0.0,-999.0,44,-99.99,,,0.00,weatherlink.com 1.10,2013-08-26 20:07:00,
2013-08-26 14:21:00,79.8,57.0,29.76,South,191,0.0,-999.0,45,-99.99,,,0.00,weatherlink.com 1.10,2013-08-26 20:21:00,
2013-08-26 14:36:00,82.2,56.0,29.76,SE,136,0.0,-999.0,41,-99.99,,,0.00,weatherlink.com 1.10,2013-08-26 20:36:00,
2013-08-26 14:51:00,84.1,56.0,29.74,SW,223,4.0,-999.0,38,-99.99,,,0.00,weatherlink.com 1.10,2013-08-26 20:51:00,
2013-08-26 15:06:00,83.0,53.0,29.73,South,188,5.0,-999.0,36,-99.99,,,0.00,weatherlink.com 1.10,2013-08-26 21:06:00,
2013-08-26 15:21:00,81.1,54.0,29.74,SSW,205,0.0,-999.0,39,-99.99,,,0.00,weatherlink.com 1.10,2013-08-26 21:21:00,
2013-08-26 15:37:00,80.5,55.0,29.75,SSW,212,1.0,-999.0,41,-99.99,,,0.00,weatherlink.com 1.10,2013-08-26 21:37:00,
2013-08-26 15:52:00,82.2,53.0,29.73,SSW,212,0.0,-999.0,36,-99.99,,,0.00,weatherlink.com 1.10,2013-08-26 21:52:00,
2013-08-26 16:08:00,84.1,53.0,29.70,WSW,255,0.0,-999.0,34,-99.99,,,0.00,weatherlink.com 1.10,2013-08-26 22:08:00,
2013-08-26 16:21:00,84.7,51.0,29.70,SSW,210,1.0,-999.0,31,-99.99,,,0.00,weatherlink.com 1.10,2013-08-26 22:21:00,
2013-08-26 16:37:00,85.7,52.0,29.68,SW,224,0.0,-999.0,31,-99.99,,,0.00,weatherlink.com 1.10,2013-08-26 22:37:00,
2013-08-26 16:52:00,85.9,49.0,29.68,SW,217,0.0,-999.0,28,-99.99,,,0.00,weatherlink.com 1.10,2013-08-26 22:52:00,
2013-08-26 17:08:00,85.5,49.0,29.67,SW,224,3.0,-999.0,28,-99.99,,,0.00,weatherlink.com 1.10,2013-08-26 23:08:00,
2013-08-26 17:23:00,85.7,49.0,29.67,SW,224,0.0,-999.0,28,-99.99,,,0.00,weatherlink.com 1.10,2013-08-26 23:23:00,
2013-08-26 17:38:00,85.5,48.0,29.67,South,174,0.0,-999.0,27,-99.99,,,0.00,weatherlink.com 1.10,2013-08-26 23:38:00,
2013-08-26 17:52:00,85.3,49.0,29.67,SW,219,5.0,-999.0,28,-99.99,,,0.00,weatherlink.com 1.10,2013-08-26 23:52:00,
2013-08-26 18:07:00,84.0,50.0,29.67,WSW,250,0.0,-999.0,31,-99.99,,,0.00,weatherlink.com 1.10,2013-08-27 00:07:00,
2013-08-26 18:23:00,84.3,49.0,29.67,WSW,250,3.0,-999.0,29,-99.99,,,0.00,weatherlink.com 1.10,2013-08-27 00:23:00,
2013-08-26 18:38:00,84.0,48.0,29.68,South,174,3.0,-999.0,29,-99.99,,,0.00,weatherlink.com 1.10,2013-08-27 00:38:00,
2013-08-26 18:54:00,76.0,55.0,29.71,South,179,6.0,-999.0,49,-99.99,,,0.00,weatherlink.com 1.10,2013-08-27 00:54:00,
2013-08-26 19:08:00,73.7,57.0,29.75,South,190,6.0,-999.0,57,-99.99,,,0.00,weatherlink.com 1.10,2013-08-27 01:08:00,
2013-08-26 19:23:00,71.3,58.0,29.75,SW,220,3.0,-999.0,64,-99.99,,,0.00,weatherlink.com 1.10,2013-08-27 01:23:00,
2013-08-26 19:39:00,70.1,58.0,29.73,SW,223,3.0,-999.0,65,-99.99,,,0.00,weatherlink.com 1.10,2013-08-27 01:39:00,
2013-08-26 19:54:00,70.6,55.0,29.72,SW,224,1.0,-999.0,58,-99.99,,,0.00,weatherlink.com 1.10,2013-08-27 01:54:00,
2013-08-26 20:09:00,72.7,55.0,29.71,SW,224,0.0,-999.0,54,-99.99,,,0.00,weatherlink.com 1.10,2013-08-27 02:09:00,
2013-08-26 20:24:00,73.3,54.0,29.70,SW,224,0.0,-999.0,51,-99.99,,,0.00,weatherlink.com 1.10,2013-08-27 02:24:00,
2013-08-26 20:39:00,73.0,55.0,29.68,SW,224,0.0,-999.0,54,-99.99,,,0.00,weatherlink.com 1.10,2013-08-27 02:39:00,
2013-08-26 20:54:00,72.7,54.0,29.69,SW,224,0.0,-999.0,53,-99.99,,,0.00,weatherlink.com 1.10,2013-08-27 02:54:00,
2013-08-26 21:09:00,72.8,56.0,29.70,SW,224,0.0,-999.0,55,-99.99,,,0.00,weatherlink.com 1.10,2013-08-27 03:09:00,
2013-08-26 21:24:00,72.1,56.0,29.71,SW,224,0.0,-999.0,58,-99.99,,,0.00,weatherlink.com 1.10,2013-08-27 03:24:00,
2013-08-26 21:39:00,71.5,57.0,29.68,SW,224,0.0,-999.0,61,-99.99,,,0.00,weatherlink.com 1.10,2013-08-27 03:39:00,
2013-08-26 21:54:00,70.8,57.0,29.69,SW,224,0.0,-999.0,62,-99.99,,,0.00,weatherlink.com 1.10,2013-08-27 03:54:00,
2013-08-26 22:09:00,70.8,58.0,29.70,SW,224,1.0,-999.0,64,-99.99,,,0.00,weatherlink.com 1.10,2013-08-27 04:09:00,
2013-08-26 22:24:00,70.6,58.0,29.71,SW,224,0.0,-999.0,65,-99.99,,,0.00,weatherlink.com 1.10,2013-08-27 04:24:00,
2013-08-26 22:39:00,70.3,58.0,29.71,SW,224,0.0,-999.0,66,-99.99,,,0.00,weatherlink.com 1.10,2013-08-27 04:39:00,
2013-08-26 22:54:00,69.4,58.0,29.71,SW,224,0.0,-999.0,68,-99.99,,,0.00,weatherlink.com 1.10,2013-08-27 04:54:00,
2013-08-26 23:09:00,69.1,59.0,29.71,SW,224,0.0,-999.0,69,-99.99,,,0.00,weatherlink.com 1.10,2013-08-27 05:09:00,
2013-08-26 23:24:00,69.4,58.0,29.70,SW,224,0.0,-999.0,67,-99.99,,,0.00,weatherlink.com 1.10,2013-08-27 05:24:00,
2013-08-26 23:39:00,68.9,60.0,29.69,SW,224,0.0,-999.0,73,-99.99,,,0.00,weatherlink.com 1.10,2013-08-27 05:39:00,
2013-08-26 23:54:00,68.1,59.0,29.71,SW,224,0.0,-999.0,73,-99.99,,,0.00,weatherlink.com 1.10,2013-08-27 05:54:00,